Time;durP1;ratioP1;P1;durP2;ratioP2;P2;SDS_P1;SDS_P2;PMS_P1;PMS_P2;Temp;Humidity;BMP_temperature;BMP_pressure;BME280_temperature;BME280_humidity;BME280_pressure;Samples;Min_cycle;Max_cycle;Signal;HPM_P1;HPM_P2
2021/04/14 00:00:30;;;;;;;16.13;14.37;;;3.60;99.90;;;;;;5075474;28;20203;-46
2021/04/14 00:02:56;;;;;;;16.47;14.03;;;3.50;99.90;;;;;;5074865;28;20257;-48
2021/04/14 00:05:26;;;;;;;17.50;15.03;;;3.50;99.90;;;;;;5075171;28;20671;-51
2021/04/14 00:07:52;;;;;;;16.70;14.67;;;3.50;99.90;;;;;;5074609;28;20177;-44
2021/04/14 00:10:21;;;;;;;15.97;13.77;;;3.50;99.90;;;;;;5075226;28;20170;-47
2021/04/14 00:12:48;;;;;;;16.87;15.10;;;3.50;99.90;;;;;;5074526;28;20173;-47
2021/04/14 00:15:21;;;;;;;16.83;14.97;;;3.50;99.90;;;;;;5074786;28;20614;-45
2021/04/14 00:17:46;;;;;;;15.10;13.50;;;3.50;99.90;;;;;;5074780;28;20694;-44
2021/04/14 00:20:12;;;;;;;17.03;15.23;;;3.60;99.90;;;;;;5074674;28;20289;-44
2021/04/14 00:22:39;;;;;;;16.40;13.93;;;3.60;99.90;;;;;;5074690;28;20174;-49
2021/04/14 00:25:05;;;;;;;15.40;13.80;;;3.70;99.90;;;;;;5075120;28;20188;-46
2021/04/14 00:27:35;;;;;;;14.73;13.23;;;3.80;99.90;;;;;;5074751;28;20226;-48
2021/04/14 00:30:01;;;;;;;15.53;13.93;;;3.80;99.90;;;;;;5074382;28;20660;-51
2021/04/14 00:32:26;;;;;;;16.63;14.83;;;3.70;99.90;;;;;;5074128;28;20201;-53
2021/04/14 00:34:52;;;;;;;15.47;13.73;;;3.60;99.90;;;;;;5074696;28;20253;-43
2021/04/14 00:37:17;;;;;;;16.53;14.57;;;3.50;99.90;;;;;;5074453;28;20214;-48
2021/04/14 00:39:44;;;;;;;16.03;14.33;;;3.50;99.90;;;;;;5074858;28;20206;-52
2021/04/14 00:42:10;;;;;;;15.27;13.77;;;3.50;99.90;;;;;;5074335;28;20571;-46
2021/04/14 00:44:35;;;;;;;15.17;13.67;;;3.70;99.90;;;;;;5074815;28;20729;-52
2021/04/14 00:47:01;;;;;;;15.87;13.83;;;3.70;99.90;;;;;;5074204;28;20585;-48
2021/04/14 00:49:28;;;;;;;14.87;13.30;;;3.70;99.90;;;;;;5074546;28;20185;-48
2021/04/14 00:51:53;;;;;;;15.40;13.80;;;3.70;99.90;;;;;;5073973;28;20174;-45
2021/04/14 00:54:19;;;;;;;15.27;13.67;;;3.80;99.90;;;;;;5074702;28;20300;-49
2021/04/14 00:56:44;;;;;;;14.83;13.23;;;3.80;99.90;;;;;;5074025;28;20267;-54
2021/04/14 00:59:10;;;;;;;14.93;13.33;;;3.70;99.90;;;;;;5074160;28;20222;-44
2021/04/14 01:01:35;;;;;;;16.23;14.47;;;3.60;99.90;;;;;;5073959;28;20269;-44
2021/04/14 01:04:01;;;;;;;16.73;14.50;;;3.70;99.90;;;;;;5074255;28;20166;-44
2021/04/14 01:06:28;;;;;;;15.80;14.07;;;3.60;99.90;;;;;;5074018;28;20194;-48
2021/04/14 01:08:54;;;;;;;15.90;14.20;;;3.60;99.90;;;;;;5074316;28;20178;-47
2021/04/14 01:11:22;;;;;;;16.57;14.77;;;3.40;99.90;;;;;;5074181;28;20162;-48
2021/04/14 01:13:47;;;;;;;16.10;14.30;;;3.30;99.90;;;;;;5074452;28;20181;-54
2021/04/14 01:16:13;;;;;;;16.27;14.17;;;3.30;99.90;;;;;;5074811;28;20186;-49
2021/04/14 01:18:40;;;;;;;15.87;14.13;;;3.20;99.90;;;;;;5074187;28;20529;-46
2021/04/14 01:21:12;;;;;;;15.27;13.67;;;3.20;99.90;;;;;;5074375;28;20177;-47
2021/04/14 01:23:38;;;;;;;16.53;14.73;;;3.30;99.90;;;;;;5074318;28;20257;-44
2021/04/14 01:26:04;;;;;;;16.70;14.50;;;3.20;99.90;;;;;;5074110;28;20562;-53
2021/04/14 01:28:36;;;;;;;15.43;13.40;;;3.10;99.90;;;;;;5075011;28;20182;-50
2021/04/14 01:31:04;;;;;;;16.43;14.37;;;3.10;99.90;;;;;;5074068;28;20412;-56
2021/04/14 01:33:32;;;;;;;16.60;14.60;;;3.10;99.90;;;;;;5074780;28;20178;-48
2021/04/14 01:35:59;;;;;;;16.20;14.50;;;3.10;99.90;;;;;;5073684;28;20570;-44
2021/04/14 01:38:24;;;;;;;16.30;14.43;;;3.10;99.90;;;;;;5074259;28;20174;-47
2021/04/14 01:40:50;;;;;;;16.10;14.40;;;3.20;99.90;;;;;;5075341;28;20610;-50
2021/04/14 01:43:15;;;;;;;16.43;13.97;;;3.30;99.90;;;;;;5074467;28;20202;-48
2021/04/14 01:45:44;;;;;;;15.23;13.43;;;3.30;99.90;;;;;;5074416;28;20237;-52
2021/04/14 01:48:10;;;;;;;15.20;13.60;;;3.30;99.90;;;;;;5073946;28;20511;-47
2021/04/14 01:50:37;;;;;;;15.20;13.57;;;3.10;99.90;;;;;;5076955;28;20174;-46
2021/04/14 01:53:04;;;;;;;14.50;13.00;;;3.10;99.90;;;;;;5076127;28;20188;-46
2021/04/14 01:55:29;;;;;;;15.27;12.50;;;3.10;99.90;;;;;;5078142;28;20197;-46
2021/04/14 01:57:58;;;;;;;13.47;12.07;;;3.00;99.90;;;;;;5078468;28;20167;-47
2021/04/14 02:00:29;;;;;;;14.30;12.77;;;3.00;99.90;;;;;;5077995;28;20202;-47
2021/04/14 02:02:55;;;;;;;13.47;11.20;;;3.10;99.90;;;;;;5078587;28;20212;-52
2021/04/14 02:05:25;;;;;;;13.53;11.57;;;3.20;99.90;;;;;;5078381;28;20171;-50
2021/04/14 02:07:50;;;;;;;14.03;12.43;;;3.20;99.90;;;;;;5077559;28;20175;-51
2021/04/14 02:10:16;;;;;;;12.53;11.23;;;3.10;99.90;;;;;;5077409;28;20431;-53
2021/04/14 02:12:42;;;;;;;12.27;10.87;;;3.00;99.90;;;;;;5078165;28;20232;-47
2021/04/14 02:15:13;;;;;;;12.80;10.83;;;3.10;99.90;;;;;;5077865;28;20182;-47
2021/04/14 02:17:39;;;;;;;12.60;11.10;;;3.10;99.90;;;;;;5078012;28;20175;-44
2021/04/14 02:20:07;;;;;;;12.43;10.70;;;3.20;99.90;;;;;;5077740;28;20501;-47
2021/04/14 02:22:32;;;;;;;14.07;10.97;;;3.30;99.90;;;;;;5077738;28;20166;-48
2021/04/14 02:24:58;;;;;;;11.20;10.10;;;3.30;99.90;;;;;;5079701;28;20480;-54
2021/04/14 02:27:23;;;;;;;12.00;10.43;;;3.40;99.90;;;;;;5077030;28;20561;-44
2021/04/14 02:29:49;;;;;;;11.40;10.03;;;3.30;99.90;;;;;;5077064;28;20262;-47
2021/04/14 02:32:14;;;;;;;11.47;10.17;;;3.30;99.90;;;;;;5078477;28;20522;-46
2021/04/14 02:34:40;;;;;;;11.33;9.87;;;3.30;99.90;;;;;;5078607;28;20171;-48
2021/04/14 02:37:06;;;;;;;12.13;10.13;;;3.20;99.90;;;;;;5076790;28;20213;-49
2021/04/14 02:39:31;;;;;;;11.70;9.60;;;3.10;99.90;;;;;;5080224;28;20229;-47
2021/04/14 02:41:57;;;;;;;11.70;10.50;;;3.20;99.90;;;;;;5078091;28;20174;-48
2021/04/14 02:44:22;;;;;;;12.00;10.70;;;3.20;99.90;;;;;;5076648;28;20189;-44
2021/04/14 02:46:48;;;;;;;12.47;10.27;;;3.20;99.90;;;;;;5076820;28;20277;-47
2021/04/14 02:49:13;;;;;;;11.37;10.17;;;3.30;99.90;;;;;;5077907;28;20197;-47
2021/04/14 02:51:39;;;;;;;11.77;10.27;;;3.30;99.90;;;;;;5077073;28;20175;-53
2021/04/14 02:54:05;;;;;;;12.17;10.87;;;3.20;99.90;;;;;;5076748;28;20179;-54
2021/04/14 02:56:30;;;;;;;13.60;10.57;;;3.10;99.90;;;;;;5076901;28;20646;-52
2021/04/14 02:58:56;;;;;;;12.73;11.33;;;3.10;99.90;;;;;;5077023;28;20202;-50
2021/04/14 03:01:21;;;;;;;12.60;11.30;;;3.00;99.90;;;;;;5075029;28;20213;-49
2021/04/14 03:03:47;;;;;;;11.70;10.50;;;3.10;99.90;;;;;;5077185;28;20174;-51
2021/04/14 03:06:13;;;;;;;12.40;10.30;;;3.20;99.90;;;;;;5078531;28;20225;-47
2021/04/14 03:08:39;;;;;;;12.87;11.43;;;3.30;99.90;;;;;;5077928;28;20606;-48
2021/04/14 03:11:04;;;;;;;12.03;10.50;;;3.40;99.90;;;;;;5076853;28;20188;-55
2021/04/14 03:13:30;;;;;;;12.67;11.17;;;3.50;99.90;;;;;;5076920;28;20182;-43
2021/04/14 03:15:55;;;;;;;12.73;11.07;;;3.50;99.90;;;;;;5076447;28;20191;-48
2021/04/14 03:18:21;;;;;;;12.97;11.33;;;3.50;99.90;;;;;;5076710;28;20289;-49
2021/04/14 03:20:47;;;;;;;13.23;11.07;;;3.30;99.90;;;;;;5076731;28;20202;-51
2021/04/14 03:23:15;;;;;;;13.63;10.97;;;3.00;99.90;;;;;;5075969;28;20163;-50
2021/04/14 03:25:41;;;;;;;11.83;10.57;;;2.80;99.90;;;;;;5076024;28;20197;-48
2021/04/14 03:28:06;;;;;;;13.57;10.80;;;2.70;99.90;;;;;;5076553;28;20401;-53
2021/04/14 03:30:32;;;;;;;12.33;11.03;;;2.50;99.90;;;;;;5077065;28;20174;-44
2021/04/14 03:32:58;;;;;;;12.10;10.43;;;2.40;99.90;;;;;;5075978;28;20650;-50
2021/04/14 03:35:26;;;;;;;12.87;11.00;;;2.30;99.90;;;;;;5076991;28;20281;-47
2021/04/14 03:37:51;;;;;;;13.63;11.10;;;2.30;99.90;;;;;;5075693;28;20413;-43
2021/04/14 03:40:18;;;;;;;12.13;10.50;;;2.30;99.90;;;;;;5075936;28;20456;-46
2021/04/14 03:42:45;;;;;;;11.53;10.10;;;2.30;99.90;;;;;;5076179;28;20166;-56
2021/04/14 03:45:16;;;;;;;11.30;10.07;;;2.30;99.90;;;;;;5076997;28;20482;-44
2021/04/14 03:47:42;;;;;;;11.23;9.63;;;2.40;99.90;;;;;;5075118;28;20869;-46
2021/04/14 03:50:11;;;;;;;14.37;9.70;;;2.40;99.90;;;;;;5075945;28;20415;-47
2021/04/14 03:52:37;;;;;;;10.53;9.37;;;2.50;99.90;;;;;;5075841;28;20443;-46
2021/04/14 03:55:07;;;;;;;11.73;10.23;;;2.60;99.90;;;;;;5076717;28;20396;-49
2021/04/14 03:57:33;;;;;;;11.50;9.20;;;2.60;99.90;;;;;;5076090;28;20182;-53
2021/04/14 03:59:58;;;;;;;10.37;9.27;;;2.60;99.90;;;;;;5076410;28;20460;-52
2021/04/14 04:02:24;;;;;;;10.37;9.37;;;2.60;99.90;;;;;;5074902;28;20178;-45
2021/04/14 04:04:50;;;;;;;10.00;8.77;;;2.50;99.90;;;;;;5075217;28;20174;-44
2021/04/14 04:07:15;;;;;;;10.70;9.57;;;2.40;99.90;;;;;;5075659;28;20251;-48
2021/04/14 04:09:41;;;;;;;10.00;8.10;;;2.40;99.90;;;;;;5076367;28;20249;-44
2021/04/14 04:12:09;;;;;;;9.73;8.73;;;2.40;99.90;;;;;;5074817;28;20173;-48
2021/04/14 04:14:36;;;;;;;11.60;8.27;;;2.30;99.90;;;;;;5074939;28;20178;-48
2021/04/14 04:17:01;;;;;;;10.47;9.27;;;2.30;99.90;;;;;;5074750;28;20764;-50
2021/04/14 04:19:27;;;;;;;9.27;8.20;;;2.30;99.90;;;;;;5075204;28;20998;-50
2021/04/14 04:21:53;;;;;;;10.10;9.03;;;2.40;99.90;;;;;;5074200;28;20661;-44
2021/04/14 04:24:19;;;;;;;10.17;8.60;;;2.50;99.90;;;;;;5071067;28;20194;-50
2021/04/14 04:26:44;;;;;;;10.13;8.70;;;2.50;99.90;;;;;;5057400;28;20195;-49
2021/04/14 04:29:10;;;;;;;10.03;8.93;;;2.40;99.90;;;;;;5058514;28;20206;-46
2021/04/14 04:31:35;;;;;;;10.10;8.30;;;2.30;99.90;;;;;;5065037;28;20225;-45
2021/04/14 04:34:01;;;;;;;10.10;8.73;;;2.30;99.90;;;;;;5054951;28;20171;-45
2021/04/14 04:36:27;;;;;;;9.87;8.80;;;2.30;99.90;;;;;;5056946;28;20222;-50
2021/04/14 04:38:52;;;;;;;10.27;8.60;;;2.40;99.90;;;;;;5067903;28;20178;-48
2021/04/14 04:41:18;;;;;;;8.93;7.87;;;2.50;99.90;;;;;;5074565;28;20166;-44
2021/04/14 04:43:43;;;;;;;9.50;8.40;;;2.60;99.90;;;;;;5058520;28;20183;-47
2021/04/14 04:46:09;;;;;;;11.20;8.63;;;2.60;99.90;;;;;;5054993;28;20225;-54
2021/04/14 04:48:35;;;;;;;9.23;8.13;;;2.60;99.90;;;;;;5054393;28;20172;-46
2021/04/14 04:51:00;;;;;;;10.50;8.80;;;2.60;99.90;;;;;;5054377;28;20175;-49
2021/04/14 04:53:26;;;;;;;9.60;8.60;;;2.70;99.90;;;;;;5053963;28;20171;-45
2021/04/14 04:55:53;;;;;;;11.50;9.40;;;2.60;99.90;;;;;;5054403;28;20190;-48
2021/04/14 04:58:19;;;;;;;9.70;8.43;;;2.50;99.90;;;;;;5053824;28;20902;-48
2021/04/14 05:00:46;;;;;;;9.90;8.87;;;2.50;99.90;;;;;;5054611;28;20802;-50
2021/04/14 05:03:14;;;;;;;10.33;8.97;;;2.50;99.90;;;;;;5055553;28;21101;-50
2021/04/14 05:05:41;;;;;;;11.60;9.33;;;2.50;99.90;;;;;;5061668;28;20549;-44
2021/04/14 05:08:09;;;;;;;11.43;8.93;;;2.50;99.90;;;;;;5056270;28;20426;-51
2021/04/14 05:10:35;;;;;;;10.57;8.80;;;2.60;99.90;;;;;;5056713;28;21212;-46
2021/04/14 05:13:02;;;;;;;11.67;9.50;;;2.70;99.90;;;;;;5074511;28;20416;-44
2021/04/14 05:15:34;;;;;;;10.53;9.43;;;2.60;99.90;;;;;;5072522;28;20401;-47
2021/04/14 05:18:00;;;;;;;10.23;8.77;;;2.60;99.90;;;;;;5055190;28;20933;-47
2021/04/14 05:20:27;;;;;;;12.67;9.80;;;2.50;99.90;;;;;;5056088;28;20828;-44
2021/04/14 05:22:52;;;;;;;11.43;8.97;;;2.50;99.90;;;;;;5054486;28;20421;-46
2021/04/14 05:25:21;;;;;;;11.80;9.80;;;2.50;99.90;;;;;;5057806;28;20421;-46
2021/04/14 05:27:49;;;;;;;10.63;9.53;;;2.50;99.90;;;;;;5079917;28;20182;-50
2021/04/14 05:30:15;;;;;;;10.33;9.23;;;2.40;99.90;;;;;;5074723;28;20585;-44
2021/04/14 05:32:42;;;;;;;9.77;8.77;;;2.40;99.90;;;;;;5064430;28;20456;-47
2021/04/14 05:35:08;;;;;;;11.10;10.00;;;2.40;99.90;;;;;;5062220;28;20431;-48
2021/04/14 05:37:34;;;;;;;11.10;8.97;;;2.40;99.90;;;;;;5075949;28;20274;-50
2021/04/14 05:39:59;;;;;;;10.23;9.23;;;2.60;99.90;;;;;;5064632;28;20495;-50
2021/04/14 05:42:25;;;;;;;11.17;9.13;;;2.70;99.90;;;;;;5067857;28;20177;-50
2021/04/14 05:44:51;;;;;;;12.23;8.90;;;2.90;99.90;;;;;;5082129;28;20234;-50
2021/04/14 05:47:17;;;;;;;9.47;7.63;;;3.00;99.90;;;;;;5065602;28;20197;-49
2021/04/14 05:49:42;;;;;;;9.40;8.40;;;3.10;99.90;;;;;;5098715;28;20182;-47
2021/04/14 05:52:08;;;;;;;10.10;8.43;;;3.00;99.90;;;;;;5086089;28;20199;-55
2021/04/14 05:54:34;;;;;;;9.87;7.97;;;2.90;99.90;;;;;;5070844;28;20229;-48
2021/04/14 05:56:59;;;;;;;9.20;8.07;;;2.90;99.90;;;;;;5060180;28;20207;-47
2021/04/14 05:59:25;;;;;;;8.97;7.77;;;2.90;99.90;;;;;;5058171;28;20210;-52
2021/04/14 06:01:51;;;;;;;8.63;7.73;;;2.90;99.90;;;;;;5068363;28;20190;-48
2021/04/14 06:04:17;;;;;;;8.77;7.57;;;3.00;99.90;;;;;;5075755;28;20170;-46
2021/04/14 06:06:42;;;;;;;13.37;8.47;;;3.10;99.90;;;;;;5078000;28;20205;-47
2021/04/14 06:09:09;;;;;;;8.53;7.57;;;3.20;99.90;;;;;;5077311;28;20178;-45
2021/04/14 06:11:35;;;;;;;8.57;7.33;;;3.20;99.90;;;;;;5078978;28;20206;-51
2021/04/14 06:14:01;;;;;;;8.30;7.47;;;3.10;99.90;;;;;;5078435;28;20182;-45
2021/04/14 06:16:26;;;;;;;9.10;7.67;;;3.00;99.90;;;;;;5080727;28;20581;-48
2021/04/14 06:18:52;;;;;;;10.53;8.50;;;2.90;99.90;;;;;;5078556;28;20178;-49
2021/04/14 06:21:18;;;;;;;9.57;8.03;;;2.90;99.90;;;;;;5076641;28;20190;-46
2021/04/14 06:23:45;;;;;;;11.13;7.73;;;2.80;99.90;;;;;;5063692;28;20270;-47
2021/04/14 06:28:38;;;;;;;8.73;7.77;;;2.70;99.90;;;;;;5056992;28;20437;-49
2021/04/14 06:31:05;;;;;;;10.90;8.23;;;2.70;99.90;;;;;;5057348;28;20194;-45
2021/04/14 06:33:37;;;;;;;9.77;8.27;;;2.70;99.90;;;;;;5056354;28;20658;-46
2021/04/14 06:36:03;;;;;;;11.00;7.97;;;2.90;99.90;;;;;;5059751;28;20464;-50
2021/04/14 06:38:32;;;;;;;9.83;7.33;;;3.00;99.90;;;;;;5056102;28;20183;-44
2021/04/14 06:44:11;;;;;;;9.97;7.60;;;3.00;99.90;;;;;;5060558;28;20231;-47
2021/04/14 06:46:38;;;;;;;8.67;7.37;;;3.00;99.90;;;;;;5073563;28;20206;-46
2021/04/14 06:49:18;;;;;;;9.20;7.73;;;3.20;99.90;;;;;;5061112;28;20187;-51
2021/04/14 06:52:17;;;;;;;10.43;7.57;;;3.40;99.90;;;;;;5056864;28;20661;-48
2021/04/14 06:54:53;;;;;;;8.83;7.90;;;3.60;99.90;;;;;;5056103;28;20205;-49
2021/04/14 06:57:23;;;;;;;10.17;8.53;;;3.80;99.90;;;;;;5056659;28;20566;-48
2021/04/14 07:00:00;;;;;;;11.77;9.17;;;4.10;99.90;;;;;;5054558;28;20637;-48
2021/04/14 07:03:12;;;;;;;10.90;8.90;;;4.20;99.90;;;;;;5057691;28;20186;-50
2021/04/14 07:05:41;;;;;;;9.90;8.90;;;4.50;99.90;;;;;;5034862;28;20290;-44
2021/04/14 07:08:21;;;;;;;9.50;8.50;;;4.70;99.90;;;;;;5033932;28;20266;-45
2021/04/14 07:10:54;;;;;;;9.80;8.77;;;4.90;99.90;;;;;;5062181;28;20194;-46
2021/04/14 07:13:20;;;;;;;9.00;8.10;;;5.10;99.90;;;;;;5077254;28;20178;-48
2021/04/14 07:15:49;;;;;;;9.90;8.53;;;5.30;99.90;;;;;;5077148;28;20206;-50
2021/04/14 07:18:16;;;;;;;10.17;8.33;;;5.50;99.90;;;;;;5077618;28;20534;-47
2021/04/14 07:20:59;;;;;;;10.20;8.83;;;5.70;99.90;;;;;;5075430;28;20535;-48
2021/04/14 07:23:47;;;;;;;10.20;8.63;;;5.70;99.90;;;;;;5064154;28;20203;-46
2021/04/14 07:26:37;;;;;;;10.40;8.93;;;5.90;99.90;;;;;;5055970;28;20270;-44
2021/04/14 07:29:21;;;;;;;8.97;8.07;;;6.10;99.90;;;;;;5056451;28;20242;-44
2021/04/14 07:32:15;;;;;;;8.67;7.60;;;6.20;99.90;;;;;;5057972;28;20167;-43
2021/04/14 07:34:47;;;;;;;10.97;8.17;;;6.10;99.90;;;;;;5052124;28;20179;-46
2021/04/14 07:37:15;;;;;;;9.80;8.53;;;6.20;99.90;;;;;;5053963;28;20574;-45
2021/04/14 07:40:01;;;;;;;12.73;8.17;;;6.30;99.90;;;;;;5054077;28;20241;-48
2021/04/14 07:42:50;;;;;;;10.23;7.80;;;6.50;99.90;;;;;;5056694;28;20212;-49
2021/04/14 07:45:18;;;;;;;8.33;7.50;;;6.60;99.90;;;;;;5075679;28;20162;-50
2021/04/14 07:47:49;;;;;;;9.67;7.10;;;6.40;99.90;;;;;;5076821;28;20515;-48
2021/04/14 07:50:15;;;;;;;8.07;7.23;;;6.40;99.90;;;;;;5073964;28;20609;-47
2021/04/14 07:52:40;;;;;;;9.43;6.70;;;6.50;99.90;;;;;;5073739;28;20683;-49
2021/04/14 07:55:29;;;;;;;8.20;6.63;;;6.50;99.90;;;;;;5075971;28;20351;-54
2021/04/14 07:58:04;;;;;;;7.97;6.87;;;6.60;99.90;;;;;;5073636;28;20171;-50
2021/04/14 08:00:39;;;;;;;8.20;7.00;;;6.70;99.90;;;;;;5076422;28;20251;-50
2021/04/14 08:03:28;;;;;;;7.97;6.67;;;6.90;99.90;;;;;;5072627;28;20192;-46
2021/04/14 08:06:19;;;;;;;7.27;6.57;;;7.40;99.90;;;;;;5054798;28;20685;-47
2021/04/14 08:08:47;;;;;;;7.40;6.40;;;7.70;99.90;;;;;;5051669;28;20229;-55
2021/04/14 08:11:28;;;;;;;6.90;6.20;;;7.80;99.90;;;;;;5057856;28;20181;-54
2021/04/14 08:14:05;;;;;;;8.30;6.77;;;8.00;99.90;;;;;;5051829;28;20651;-48
2021/04/14 08:16:35;;;;;;;8.13;6.77;;;7.50;99.90;;;;;;5051810;28;20255;-51
2021/04/14 08:19:18;;;;;;;7.77;6.97;;;7.40;99.90;;;;;;5062574;28;20650;-44
2021/04/14 08:22:03;;;;;;;7.07;6.23;;;7.50;99.90;;;;;;5057332;28;20167;-51
2021/04/14 08:24:37;;;;;;;7.07;6.23;;;8.00;99.90;;;;;;5058086;28;20195;-52
2021/04/14 08:27:20;;;;;;;9.13;6.20;;;8.30;99.90;;;;;;5057998;28;20202;-50
2021/04/14 08:30:14;;;;;;;9.03;6.70;;;8.30;99.90;;;;;;5065953;28;20186;-50
2021/04/14 08:32:42;;;;;;;7.73;6.70;;;8.40;99.90;;;;;;5063538;28;20182;-47
2021/04/14 08:35:34;;;;;;;6.93;6.23;;;8.60;99.90;;;;;;5064226;28;20630;-48
2021/04/14 08:38:10;;;;;;;7.07;6.17;;;8.80;99.90;;;;;;5077517;28;20198;-49
2021/04/14 08:40:51;;;;;;;6.80;5.93;;;9.20;99.90;;;;;;5070190;28;20201;-48
2021/04/14 08:43:43;;;;;;;5.50;5.00;;;9.30;99.90;;;;;;5058207;28;20178;-46
2021/04/14 08:46:09;;;;;;;6.27;5.40;;;9.70;99.90;;;;;;5056415;28;20211;-51
2021/04/14 08:48:37;;;;;;;5.33;4.83;;;10.10;99.90;;;;;;5058250;28;20178;-49
2021/04/14 08:51:04;;;;;;;6.13;5.27;;;10.30;99.90;;;;;;5061942;28;20179;-48
2021/04/14 08:53:39;;;;;;;5.80;5.10;;;10.50;99.90;;;;;;5061608;28;20195;-46
2021/04/14 08:56:05;;;;;;;6.73;5.73;;;10.60;99.90;;;;;;5077498;28;20240;-45
2021/04/14 08:58:32;;;;;;;6.37;5.37;;;10.50;99.90;;;;;;5060759;28;20183;-49
2021/04/14 09:00:58;;;;;;;6.07;4.70;;;10.30;99.90;;;;;;5057219;28;20199;-47
2021/04/14 09:03:27;;;;;;;5.93;4.70;;;10.50;99.90;;;;;;5069743;28;20198;-49
2021/04/14 09:05:53;;;;;;;5.33;4.17;;;10.90;99.90;;;;;;5069371;28;20190;-49
2021/04/14 09:08:22;;;;;;;4.60;4.20;;;11.00;99.90;;;;;;5073690;28;20707;-55
2021/04/14 09:11:03;;;;;;;4.37;3.97;;;9.50;99.90;;;;;;5074957;28;20211;-45
2021/04/14 09:13:38;;;;;;;4.50;4.00;;;11.20;99.90;;;;;;5076840;28;20178;-51
2021/04/14 09:16:07;;;;;;;4.87;4.10;;;11.20;99.80;;;;;;5077738;28;20682;-45
2021/04/14 09:18:36;;;;;;;5.10;4.30;;;11.20;99.10;;;;;;5076823;28;20227;-51
2021/04/14 09:21:20;;;;;;;6.47;4.10;;;11.20;98.60;;;;;;5086085;28;20198;-54
2021/04/14 09:23:52;;;;;;;5.60;4.13;;;11.10;97.80;;;;;;5088745;28;20184;-52
2021/04/14 09:26:52;;;;;;;4.60;3.77;;;11.10;98.00;;;;;;5075161;28;20233;-48
2021/04/14 09:29:43;;;;;;;5.20;3.93;;;11.00;97.70;;;;;;5082203;28;20201;-48
2021/04/14 09:32:12;;;;;;;4.43;3.70;;;10.90;97.20;;;;;;5087082;28;20642;-47
2021/04/14 09:34:41;;;;;;;5.87;4.50;;;10.80;97.70;;;;;;5064299;28;20202;-47
2021/04/14 09:37:28;;;;;;;7.13;5.67;;;10.70;99.50;;;;;;5084775;28;20214;-52
2021/04/14 09:40:05;;;;;;;7.30;5.60;;;10.70;99.80;;;;;;5085249;28;20190;-48
2021/04/14 09:42:34;;;;;;;6.30;4.50;;;10.70;99.90;;;;;;5087808;28;20198;-49
2021/04/14 09:45:27;;;;;;;4.90;4.30;;;10.70;99.60;;;;;;5070280;28;20171;-44
2021/04/14 09:47:54;;;;;;;18.47;16.13;;;10.60;99.70;;;;;;5057600;28;20312;-50
2021/04/14 09:50:28;;;;;;;11.47;10.30;;;10.20;99.00;;;;;;5066623;28;20176;-52
2021/04/14 09:52:58;;;;;;;5.50;4.90;;;9.70;99.70;;;;;;5059961;28;20210;-47
2021/04/14 09:55:32;;;;;;;3.47;2.73;;;9.40;99.90;;;;;;5061590;28;20261;-52
2021/04/14 09:58:26;;;;;;;2.47;2.23;;;9.30;99.90;;;;;;5063009;28;20177;-48
2021/04/14 10:01:03;;;;;;;2.97;2.60;;;9.30;99.90;;;;;;5034388;28;20258;-47
2021/04/14 10:03:33;;;;;;;3.37;2.80;;;9.20;99.90;;;;;;5071525;28;20264;-48
2021/04/14 10:06:10;;;;;;;3.60;2.53;;;9.20;99.40;;;;;;5059650;28;20274;-47
2021/04/14 10:08:37;;;;;;;4.23;3.20;;;9.20;99.90;;;;;;5061060;28;20984;-52
2021/04/14 10:11:03;;;;;;;4.13;3.57;;;9.30;99.90;;;;;;5069903;28;20181;-48
2021/04/14 10:13:32;;;;;;;3.30;3.00;;;9.20;99.90;;;;;;5071112;28;20187;-49
2021/04/14 10:15:57;;;;;;;4.53;3.23;;;9.30;99.90;;;;;;5086785;28;20694;-53
2021/04/14 10:18:27;;;;;;;4.50;3.90;;;9.30;99.90;;;;;;5082847;28;20167;-47
2021/04/14 10:20:54;;;;;;;3.50;3.17;;;9.50;99.90;;;;;;5063903;28;20207;-47
2021/04/14 10:23:24;;;;;;;5.37;3.50;;;10.00;99.90;;;;;;5075977;28;20185;-45
2021/04/14 10:26:02;;;;;;;5.00;3.70;;;10.60;99.90;;;;;;5057679;28;20203;-51
2021/04/14 10:28:28;;;;;;;3.60;3.30;;;10.90;99.20;;;;;;5057480;28;20171;-49
2021/04/14 10:31:10;;;;;;;4.07;3.50;;;11.00;96.90;;;;;;5057610;28;20183;-48
2021/04/14 10:33:38;;;;;;;4.50;3.57;;;11.20;97.50;;;;;;5093179;28;20641;-47
2021/04/14 10:36:23;;;;;;;4.20;3.50;;;11.30;97.80;;;;;;5073208;28;20306;-47
2021/04/14 10:38:50;;;;;;;4.43;3.10;;;11.00;98.20;;;;;;5069172;28;20638;-52
2021/04/14 10:41:22;;;;;;;3.17;2.70;;;9.70;96.70;;;;;;5070482;28;20578;-52
2021/04/14 10:43:49;;;;;;;5.97;3.27;;;8.40;96.80;;;;;;5076031;28;20190;-49
2021/04/14 10:46:32;;;;;;;3.13;2.67;;;8.00;99.90;;;;;;5086375;28;20199;-48
2021/04/14 10:49:01;;;;;;;3.70;3.00;;;7.80;99.90;;;;;;5081956;28;20179;-44
2021/04/14 10:51:48;;;;;;;3.57;3.00;;;7.90;99.90;;;;;;5068670;28;20191;-45
2021/04/14 10:54:16;;;;;;;4.90;4.50;;;8.20;99.90;;;;;;5071847;28;20527;-50
2021/04/14 10:56:42;;;;;;;5.60;3.37;;;8.40;99.90;;;;;;5067082;28;20299;-50
2021/04/14 10:59:16;;;;;;;3.07;2.70;;;8.80;99.90;;;;;;5072683;28;20191;-55
2021/04/14 11:01:46;;;;;;;6.47;3.17;;;9.20;99.90;;;;;;5065333;28;20191;-47
2021/04/14 11:04:15;;;;;;;4.27;2.97;;;9.80;99.80;;;;;;5067381;28;20178;-48
2021/04/14 11:06:42;;;;;;;2.87;2.30;;;10.20;97.20;;;;;;5067430;28;20715;-50
2021/04/14 11:09:09;;;;;;;3.10;2.60;;;10.50;98.50;;;;;;5065165;28;20178;-51
2021/04/14 11:11:37;;;;;;;2.93;2.50;;;10.90;97.90;;;;;;5065044;28;20178;-52
2021/04/14 11:14:05;;;;;;;3.77;2.67;;;11.50;98.50;;;;;;5072376;28;20215;-55
2021/04/14 11:16:33;;;;;;;2.90;2.50;;;12.30;96.80;;;;;;5076293;28;20284;-51
2021/04/14 11:18:59;;;;;;;2.60;2.40;;;12.90;94.30;;;;;;5076061;28;20250;-49
2021/04/14 11:21:30;;;;;;;2.77;2.20;;;13.40;92.00;;;;;;5075470;28;20765;-47
2021/04/14 11:24:22;;;;;;;2.27;2.03;;;13.60;89.10;;;;;;5075526;28;20657;-50
2021/04/14 11:27:00;;;;;;;3.00;2.40;;;13.10;89.90;;;;;;5074226;28;20222;-46
2021/04/14 11:29:28;;;;;;;2.73;2.40;;;12.50;91.60;;;;;;5076242;28;20642;-50
2021/04/14 11:31:55;;;;;;;2.90;2.60;;;12.50;92.50;;;;;;5074585;28;20190;-47
2021/04/14 11:34:34;;;;;;;3.50;2.70;;;12.30;91.70;;;;;;5075750;28;20182;-49
2021/04/14 11:37:16;;;;;;;3.13;2.53;;;12.40;94.00;;;;;;5074902;28;20215;-47
2021/04/14 11:40:06;;;;;;;3.57;2.83;;;12.60;93.40;;;;;;5076188;28;20210;-51
2021/04/14 11:42:53;;;;;;;4.67;2.47;;;12.80;91.20;;;;;;5075367;28;20563;-52
2021/04/14 11:45:37;;;;;;;3.50;2.30;;;12.60;91.10;;;;;;5074797;28;20221;-47
2021/04/14 11:48:14;;;;;;;3.60;2.23;;;13.00;92.70;;;;;;5075645;28;20199;-45
2021/04/14 11:50:47;;;;;;;2.47;1.83;;;13.40;91.50;;;;;;5073953;28;20184;-49
2021/04/14 11:53:30;;;;;;;2.73;2.07;;;13.80;88.60;;;;;;5074973;28;20206;-47
2021/04/14 11:55:57;;;;;;;2.23;1.63;;;14.10;83.00;;;;;;5075389;28;20267;-52
2021/04/14 11:58:36;;;;;;;2.93;2.00;;;14.40;81.80;;;;;;5075930;28;20182;-54
2021/04/14 12:01:03;;;;;;;2.37;2.07;;;14.90;81.90;;;;;;5074930;28;20222;-51
2021/04/14 12:03:34;;;;;;;2.93;1.83;;;15.90;87.50;;;;;;5075689;28;20275;-47
2021/04/14 12:06:00;;;;;;;2.00;1.77;;;16.90;76.20;;;;;;5074993;28;20535;-47
2021/04/14 12:08:27;;;;;;;1.77;1.67;;;17.20;74.80;;;;;;5073741;28;20308;-48
2021/04/14 12:10:53;;;;;;;2.00;1.80;;;16.90;74.70;;;;;;5074698;28;20698;-51
2021/04/14 12:13:21;;;;;;;2.70;1.90;;;16.60;71.30;;;;;;5074162;28;20202;-47
2021/04/14 12:15:48;;;;;;;3.23;1.80;;;15.90;73.70;;;;;;5076598;28;20678;-45
2021/04/14 12:18:14;;;;;;;2.53;1.83;;;14.50;68.90;;;;;;5074734;28;20178;-49
2021/04/14 12:20:39;;;;;;;2.30;1.93;;;13.80;73.00;;;;;;5073179;28;20198;-49
2021/04/14 12:23:05;;;;;;;2.33;2.00;;;13.00;81.00;;;;;;5074545;28;20199;-47
2021/04/14 12:25:30;;;;;;;3.13;2.00;;;12.90;79.50;;;;;;5074833;28;20558;-48
2021/04/14 12:27:56;;;;;;;2.93;1.50;;;14.30;78.50;;;;;;5073303;28;20252;-49
2021/04/14 12:30:25;;;;;;;2.83;1.63;;;15.50;78.40;;;;;;5072934;28;20175;-55
2021/04/14 12:32:51;;;;;;;2.20;1.90;;;17.30;72.00;;;;;;5074130;28;20185;-43
2021/04/14 12:35:18;;;;;;;2.60;1.58;;;19.40;63.90;;;;;;5074088;28;20187;-49
2021/04/14 12:37:43;;;;;;;3.15;1.50;;;21.10;59.50;;;;;;5075408;28;20163;-47
2021/04/14 12:40:10;;;;;;;2.33;1.50;;;22.20;55.50;;;;;;5075908;28;20207;-46
2021/04/14 12:42:36;;;;;;;3.35;1.63;;;23.80;51.90;;;;;;5073317;28;20186;-49
2021/04/14 12:45:09;;;;;;;1.92;1.38;;;24.20;49.70;;;;;;5074548;28;20182;-45
2021/04/14 12:47:35;;;;;;;1.52;1.40;;;24.00;52.20;;;;;;5074445;28;20174;-46
2021/04/14 12:50:00;;;;;;;2.90;1.67;;;23.30;50.10;;;;;;5073539;28;20178;-48
2021/04/14 12:52:43;;;;;;;2.72;1.70;;;22.50;50.20;;;;;;5073841;28;20542;-45
2021/04/14 12:55:16;;;;;;;2.35;1.65;;;21.40;50.00;;;;;;5076512;28;20183;-50
2021/04/14 12:57:43;;;;;;;2.37;1.60;;;20.00;50.60;;;;;;5075037;28;20181;-51
2021/04/14 13:00:12;;;;;;;1.57;1.47;;;18.90;50.60;;;;;;5074516;28;20202;-57
2021/04/14 13:02:45;;;;;;;2.73;1.63;;;17.90;52.80;;;;;;5072201;28;20700;-52
2021/04/14 13:05:19;;;;;;;1.80;1.60;;;17.20;52.90;;;;;;5074431;28;20177;-46